Time;durP1;ratioP1;P1;durP2;ratioP2;P2;SDS_P1;SDS_P2;PMS_P1;PMS_P2;Temp;Humidity;BMP_temperature;BMP_pressure;BME280_temperature;BME280_humidity;BME280_pressure;Samples;Min_cycle;Max_cycle;Signal;HPM_P1;HPM_P2
2022/04/17 00:00:01;;;;;;;3.00;2.80;;;7.30;64.70;;;;;;5144461;27;20672;-80
2022/04/17 00:02:28;;;;;;;3.53;3.00;;;7.40;64.90;;;;;;5146027;27;20635;-79
2022/04/17 00:04:55;;;;;;;3.33;2.37;;;7.40;65.10;;;;;;5143917;27;20822;-80
2022/04/17 00:07:23;;;;;;;3.20;2.90;;;7.00;65.00;;;;;;5146097;27;20633;-81
2022/04/17 00:09:50;;;;;;;3.60;2.10;;;6.80;65.20;;;;;;5140972;27;20663;-80
2022/04/17 00:12:17;;;;;;;3.70;3.00;;;7.60;65.90;;;;;;5144347;27;20690;-80
2022/04/17 00:14:44;;;;;;;2.13;2.03;;;7.40;65.70;;;;;;5142069;27;20794;-82
2022/04/17 00:17:11;;;;;;;2.67;2.47;;;7.50;65.70;;;;;;5142554;27;20631;-81
2022/04/17 00:19:38;;;;;;;2.67;2.47;;;7.10;65.30;;;;;;5140604;27;20662;-81
2022/04/17 00:22:05;;;;;;;2.80;2.50;;;7.20;65.60;;;;;;5144707;27;20648;-81
2022/04/17 00:24:33;;;;;;;3.10;2.80;;;7.10;65.20;;;;;;5147100;27;20640;-81
2022/04/17 00:27:00;;;;;;;3.63;2.50;;;7.20;66.40;;;;;;5143085;27;20602;-81
2022/04/17 00:29:27;;;;;;;2.97;2.67;;;7.20;65.90;;;;;;5142345;27;21255;-82
2022/04/17 00:31:54;;;;;;;2.37;2.17;;;7.20;65.90;;;;;;5148853;27;20631;-81
2022/04/17 00:34:20;;;;;;;2.97;2.67;;;7.10;66.30;;;;;;5145313;27;20634;-81
2022/04/17 00:36:47;;;;;;;4.40;2.60;;;7.20;66.90;;;;;;5143200;27;20634;-81
2022/04/17 00:39:14;;;;;;;2.90;2.70;;;7.00;66.80;;;;;;5144004;27;20624;-82
2022/04/17 00:41:42;;;;;;;2.70;2.50;;;6.60;66.80;;;;;;5140437;27;20662;-81
2022/04/17 00:44:11;;;;;;;3.07;2.60;;;6.60;66.70;;;;;;5146293;27;20622;-80
2022/04/17 00:46:38;;;;;;;3.07;2.80;;;7.00;67.20;;;;;;5141922;27;20633;-81
2022/04/17 00:49:05;;;;;;;3.83;3.37;;;7.10;67.30;;;;;;5141080;27;20635;-81
2022/04/17 00:51:32;;;;;;;3.20;2.67;;;7.00;67.40;;;;;;5138999;27;20652;-81
2022/04/17 00:53:59;;;;;;;7.07;3.37;;;7.10;68.00;;;;;;5145097;27;20640;-82
2022/04/17 00:56:27;;;;;;;3.23;2.97;;;6.90;67.70;;;;;;5142256;27;21001;-80
2022/04/17 00:58:56;;;;;;;3.47;3.13;;;7.00;68.50;;;;;;5143879;27;21190;-80
2022/04/17 01:01:23;;;;;;;2.90;2.60;;;6.60;68.00;;;;;;5140871;27;20861;-82
2022/04/17 01:03:50;;;;;;;2.63;2.43;;;6.70;68.00;;;;;;5146179;27;20660;-81
2022/04/17 01:06:18;;;;;;;2.97;2.70;;;6.60;68.30;;;;;;5142152;27;20636;-81
2022/04/17 01:08:44;;;;;;;5.23;3.07;;;6.40;68.30;;;;;;5141238;27;20621;-81
2022/04/17 01:11:12;;;;;;;2.97;2.63;;;6.70;68.90;;;;;;5142656;27;20737;-81
2022/04/17 01:13:41;;;;;;;5.60;3.00;;;6.80;69.70;;;;;;5141431;27;20618;-80
2022/04/17 01:16:09;;;;;;;3.07;2.80;;;6.70;69.80;;;;;;5146261;27;21166;-80
2022/04/17 01:18:57;;;;;;;3.37;3.07;;;6.40;69.80;;;;;;5143843;27;20614;-80
2022/04/17 01:21:25;;;;;;;6.57;2.73;;;6.80;70.70;;;;;;5139923;27;20674;-80
2022/04/17 01:29:21;;;;;;;3.77;3.47;;;6.30;70.90;;;;;;5141025;27;20721;-80
2022/04/17 01:31:48;;;;;;;3.53;3.23;;;6.80;71.80;;;;;;5146872;27;20953;-81
2022/04/17 01:34:15;;;;;;;3.37;3.03;;;6.50;72.10;;;;;;5145720;27;20629;-80
2022/04/17 01:36:44;;;;;;;4.13;3.83;;;6.50;73.20;;;;;;5142848;27;20621;-80
2022/04/17 01:39:11;;;;;;;3.70;3.40;;;6.50;74.40;;;;;;5141018;27;20634;-81
2022/04/17 01:41:38;;;;;;;4.23;3.57;;;6.20;74.80;;;;;;5140803;27;20673;-81
2022/04/17 01:44:05;;;;;;;3.17;2.97;;;6.50;76.00;;;;;;5142134;27;20852;-81
2022/04/17 01:46:32;;;;;;;4.00;3.57;;;6.50;77.60;;;;;;5139819;27;20641;-81
2022/04/17 01:48:59;;;;;;;4.27;3.90;;;6.40;79.00;;;;;;5140875;27;20649;-81
2022/04/17 01:51:26;;;;;;;4.27;3.90;;;5.80;78.70;;;;;;5142890;27;20661;-81
2022/04/17 01:53:54;;;;;;;6.13;4.17;;;6.30;79.50;;;;;;5145430;27;20622;-81
2022/04/17 01:56:21;;;;;;;3.80;3.40;;;6.30;80.40;;;;;;5142532;27;20625;-82
2022/04/17 01:58:48;;;;;;;5.00;4.20;;;6.30;83.50;;;;;;5144046;27;20617;-81
2022/04/17 02:01:15;;;;;;;4.20;3.90;;;6.10;84.20;;;;;;5140898;27;20696;-81
2022/04/17 02:03:42;;;;;;;3.90;3.50;;;6.10;84.40;;;;;;5144764;27;20634;-81
2022/04/17 02:06:08;;;;;;;4.00;3.70;;;6.20;84.50;;;;;;5141471;27;20656;-81
2022/04/17 02:08:35;;;;;;;3.80;3.50;;;5.90;84.90;;;;;;5141467;27;20989;-81
2022/04/17 02:11:03;;;;;;;4.00;3.70;;;5.70;85.20;;;;;;5140163;27;20641;-81
2022/04/17 02:13:30;;;;;;;4.47;4.03;;;5.70;85.80;;;;;;5144886;27;20627;-80
2022/04/17 02:15:57;;;;;;;4.60;4.30;;;5.80;86.40;;;;;;5140835;27;21202;-80
2022/04/17 02:18:25;;;;;;;3.77;3.40;;;6.00;86.50;;;;;;5141341;27;20624;-82
2022/04/17 02:20:54;;;;;;;4.40;4.10;;;6.10;87.20;;;;;;5136259;27;21235;-80
2022/04/17 02:23:20;;;;;;;4.10;3.67;;;5.60;85.80;;;;;;5141295;27;20633;-80
2022/04/17 02:25:47;;;;;;;4.40;4.10;;;6.10;85.80;;;;;;5143012;27;21212;-81
2022/04/17 02:28:15;;;;;;;4.57;4.17;;;6.00;85.20;;;;;;5140033;27;20971;-82
2022/04/17 02:30:42;;;;;;;4.07;3.77;;;5.80;85.40;;;;;;5141272;27;21019;-81
2022/04/17 02:33:10;;;;;;;4.23;3.80;;;6.10;86.00;;;;;;5139601;27;20651;-81
2022/04/17 02:35:37;;;;;;;4.97;4.57;;;5.70;85.20;;;;;;5141465;27;20630;-81
2022/04/17 02:38:04;;;;;;;3.73;3.43;;;6.20;86.40;;;;;;5144431;27;20978;-82
2022/04/17 02:40:31;;;;;;;4.50;4.10;;;5.90;85.90;;;;;;5138299;27;20655;-81
2022/04/17 02:42:59;;;;;;;4.37;4.07;;;5.90;85.60;;;;;;5142030;27;20707;-80
2022/04/17 02:45:27;;;;;;;4.30;4.00;;;5.90;86.20;;;;;;5138403;27;20617;-81
2022/04/17 02:47:54;;;;;;;4.80;4.40;;;5.90;86.40;;;;;;5138959;27;20633;-81
2022/04/17 02:50:22;;;;;;;4.57;3.90;;;6.00;86.70;;;;;;5140536;27;20656;-81
2022/04/17 02:52:50;;;;;;;9.13;4.17;;;6.00;86.90;;;;;;5139798;27;21194;-81
2022/04/17 02:55:17;;;;;;;4.37;3.83;;;6.00;86.90;;;;;;5145226;27;20940;-81
2022/04/17 02:57:45;;;;;;;3.70;3.40;;;5.70;87.20;;;;;;5140260;27;20620;-81
2022/04/17 03:00:12;;;;;;;6.80;4.30;;;6.00;87.60;;;;;;5141351;27;20675;-81
2022/04/17 03:05:39;;;;;;;4.17;3.87;;;5.70;88.30;;;;;;5141825;27;21215;-81
2022/04/17 03:08:08;;;;;;;4.70;4.30;;;5.80;88.80;;;;;;5141587;27;20964;-81
2022/04/17 03:10:36;;;;;;;4.53;3.90;;;5.70;89.40;;;;;;5141479;27;20653;-81
2022/04/17 03:13:04;;;;;;;4.57;4.17;;;5.30;89.20;;;;;;5139132;27;20633;-81
2022/04/17 03:15:31;;;;;;;3.77;3.57;;;5.20;89.90;;;;;;5141490;27;20624;-82
2022/04/17 03:17:59;;;;;;;4.03;3.73;;;5.60;90.60;;;;;;5141259;27;20621;-82
2022/04/17 03:20:26;;;;;;;3.97;3.53;;;5.50;91.70;;;;;;5136456;27;20718;-81
2022/04/17 03:22:53;;;;;;;3.63;3.40;;;5.40;92.00;;;;;;5139461;27;20692;-80
2022/04/17 03:25:20;;;;;;;4.50;4.10;;;5.60;92.00;;;;;;5135161;27;20642;-81
2022/04/17 03:27:47;;;;;;;4.53;4.13;;;5.50;91.50;;;;;;5143809;27;20657;-82
2022/04/17 03:30:16;;;;;;;4.13;3.73;;;5.60;92.10;;;;;;5139180;27;20649;-82
2022/04/17 03:32:43;;;;;;;4.37;4.07;;;5.60;92.20;;;;;;5141537;27;20620;-82
2022/04/17 03:35:12;;;;;;;4.03;3.73;;;4.90;92.30;;;;;;5144529;27;20621;-81
2022/04/17 03:37:39;;;;;;;4.30;3.90;;;5.50;93.00;;;;;;5149468;27;20606;-81
2022/04/17 03:40:07;;;;;;;4.40;4.10;;;5.30;92.80;;;;;;5143633;27;20659;-81
2022/04/17 03:42:35;;;;;;;3.80;3.50;;;5.30;92.10;;;;;;5149306;27;21216;-81
2022/04/17 03:45:03;;;;;;;4.00;3.70;;;4.90;92.00;;;;;;5144382;27;21120;-80
2022/04/17 03:47:29;;;;;;;4.20;3.90;;;5.00;91.70;;;;;;5142951;27;20636;-80
2022/04/17 03:49:56;;;;;;;4.33;4.03;;;5.50;92.20;;;;;;5147242;27;20653;-81
2022/04/17 03:52:24;;;;;;;3.50;3.20;;;5.40;92.50;;;;;;5139620;27;20625;-82
2022/04/17 03:54:51;;;;;;;4.10;3.70;;;5.30;92.10;;;;;;5146132;27;21003;-81
2022/04/17 03:57:18;;;;;;;4.20;3.80;;;4.90;92.20;;;;;;5137847;27;20625;-81
2022/04/17 03:59:45;;;;;;;3.50;3.30;;;5.30;92.10;;;;;;5139548;27;21134;-82
2022/04/17 04:02:11;;;;;;;3.60;3.30;;;4.90;91.80;;;;;;5148578;27;20657;-81
2022/04/17 04:04:38;;;;;;;4.10;3.80;;;5.30;92.30;;;;;;5148426;27;21182;-81
2022/04/17 04:07:05;;;;;;;3.97;3.67;;;4.90;91.70;;;;;;5143423;27;20628;-82
2022/04/17 04:09:33;;;;;;;3.70;3.40;;;5.50;92.20;;;;;;5146177;27;20649;-81
2022/04/17 04:11:59;;;;;;;3.53;3.23;;;5.30;92.60;;;;;;5148235;27;20636;-81
2022/04/17 04:14:26;;;;;;;4.00;3.70;;;5.20;92.50;;;;;;5143744;27;20633;-82
2022/04/17 04:16:53;;;;;;;6.10;3.50;;;5.30;92.20;;;;;;5142948;27;20628;-81
2022/04/17 04:19:20;;;;;;;3.37;3.07;;;5.30;92.20;;;;;;5143118;27;20636;-82
2022/04/17 04:21:49;;;;;;;4.20;3.80;;;5.20;92.60;;;;;;5149472;27;20668;-82
2022/04/17 04:24:17;;;;;;;3.57;3.30;;;5.10;92.30;;;;;;5147939;27;21185;-81
2022/04/17 04:26:45;;;;;;;4.20;3.50;;;5.30;92.50;;;;;;5145538;27;20636;-82
2022/04/17 04:29:11;;;;;;;3.83;3.53;;;5.10;92.80;;;;;;5137956;27;20726;-81
2022/04/17 04:31:37;;;;;;;3.33;3.13;;;5.30;93.20;;;;;;5145730;27;20622;-81
2022/04/17 04:34:04;;;;;;;3.20;2.90;;;5.20;93.10;;;;;;5141418;27;20207;-80
2022/04/17 04:36:31;;;;;;;3.37;3.17;;;5.40;92.90;;;;;;5148177;27;20629;-81
2022/04/17 04:38:58;;;;;;;4.10;3.73;;;5.10;92.70;;;;;;5146503;27;20617;-80
2022/04/17 04:41:24;;;;;;;4.47;2.90;;;5.40;92.70;;;;;;5139887;27;20773;-80
2022/04/17 04:43:53;;;;;;;3.27;3.03;;;4.80;92.10;;;;;;5142709;27;20624;-80
2022/04/17 04:46:18;;;;;;;3.20;2.90;;;5.10;92.00;;;;;;5142820;27;21148;-80
2022/04/17 04:51:30;;;;;;;3.50;3.20;;;5.30;92.00;;;;;;5143696;27;20308;-80
2022/04/17 04:53:57;;;;;;;3.80;3.50;;;5.00;91.70;;;;;;5145114;27;20709;-81
2022/04/17 04:56:25;;;;;;;3.60;3.30;;;5.30;91.90;;;;;;5143245;27;20669;-81
2022/04/17 04:58:53;;;;;;;3.23;3.03;;;5.30;92.10;;;;;;5143133;27;20617;-81
2022/04/17 05:01:20;;;;;;;3.13;2.83;;;5.40;92.30;;;;;;5142446;27;20642;-80
2022/04/17 05:03:47;;;;;;;3.50;3.20;;;5.00;92.10;;;;;;5139009;27;20634;-81
2022/04/17 05:06:14;;;;;;;3.50;3.20;;;5.10;92.00;;;;;;5144511;27;20617;-80
2022/04/17 05:08:40;;;;;;;3.03;2.73;;;5.70;91.90;;;;;;5140670;27;21300;-80
2022/04/17 05:11:07;;;;;;;5.53;3.13;;;5.40;91.80;;;;;;5144102;27;20633;-80
2022/04/17 05:13:34;;;;;;;3.87;3.57;;;5.40;92.00;;;;;;5141947;27;20978;-81
2022/04/17 05:16:03;;;;;;;4.03;3.30;;;5.50;92.10;;;;;;5141651;27;20626;-81
2022/04/17 05:18:30;;;;;;;3.00;2.80;;;5.40;92.30;;;;;;5141079;27;20629;-81
2022/04/17 05:20:57;;;;;;;3.37;3.17;;;5.30;92.30;;;;;;5145720;27;20624;-81
2022/04/17 05:23:29;;;;;;;5.87;5.37;;;5.00;92.40;;;;;;5142465;27;20764;-81
2022/04/17 05:25:57;;;;;;;3.53;3.23;;;5.40;92.60;;;;;;5144985;27;21319;-81
2022/04/17 05:28:24;;;;;;;3.80;3.43;;;5.70;92.50;;;;;;5144110;27;20648;-81
2022/04/17 05:30:51;;;;;;;3.30;3.10;;;5.50;92.20;;;;;;5140908;27;20625;-81
2022/04/17 05:33:20;;;;;;;3.00;2.70;;;5.50;92.10;;;;;;5145441;27;20620;-81
2022/04/17 05:35:47;;;;;;;4.10;3.70;;;5.90;92.10;;;;;;5139195;27;21217;-81
2022/04/17 05:38:14;;;;;;;3.03;2.73;;;5.80;91.90;;;;;;5142245;27;21010;-81
2022/04/17 05:40:42;;;;;;;3.13;2.80;;;5.90;91.70;;;;;;5148565;27;20645;-80
2022/04/17 05:43:10;;;;;;;3.43;3.23;;;5.50;91.20;;;;;;5145021;27;20651;-80
2022/04/17 05:45:38;;;;;;;3.10;2.90;;;5.90;91.30;;;;;;5144936;27;20646;-80
2022/04/17 05:48:06;;;;;;;4.77;2.90;;;5.60;91.00;;;;;;5140714;27;20649;-80
2022/04/17 05:50:34;;;;;;;2.57;2.37;;;6.20;91.10;;;;;;5140461;27;20924;-81
2022/04/17 05:53:02;;;;;;;3.90;2.83;;;6.30;90.80;;;;;;5138133;27;20625;-80
2022/04/17 05:55:29;;;;;;;3.17;2.97;;;6.50;90.90;;;;;;5140738;27;20803;-81
2022/04/17 05:57:55;;;;;;;4.80;2.60;;;6.10;90.40;;;;;;5139151;27;21301;-80
2022/04/17 06:00:22;;;;;;;4.10;3.20;;;6.40;90.30;;;;;;5143322;27;20636;-81
2022/04/17 06:02:49;;;;;;;3.77;2.70;;;6.30;90.10;;;;;;5140952;27;21114;-81
2022/04/17 06:05:17;;;;;;;3.83;2.80;;;6.60;90.10;;;;;;5149578;27;20971;-81
2022/04/17 06:07:45;;;;;;;2.63;2.30;;;6.50;89.30;;;;;;5139971;27;20740;-81
2022/04/17 06:10:14;;;;;;;2.50;2.30;;;6.90;88.50;;;;;;5139869;27;20822;-81
2022/04/17 06:12:41;;;;;;;2.70;2.50;;;7.00;87.60;;;;;;5142848;27;20637;-81
2022/04/17 06:15:10;;;;;;;3.10;2.80;;;6.70;87.20;;;;;;5139767;27;20625;-81
2022/04/17 06:17:38;;;;;;;2.83;2.57;;;6.80;87.10;;;;;;5143033;27;20752;-81
2022/04/17 06:20:06;;;;;;;4.37;4.07;;;7.30;87.20;;;;;;5144756;27;20629;-81
2022/04/17 06:22:34;;;;;;;3.00;2.70;;;7.50;86.80;;;;;;5138085;27;21009;-81
2022/04/17 06:25:03;;;;;;;4.37;3.97;;;7.50;86.10;;;;;;5142037;27;20653;-81
2022/04/17 06:27:37;;;;;;;2.13;2.03;;;7.40;86.10;;;;;;5145542;27;20654;-81
2022/04/17 06:30:08;;;;;;;3.33;2.60;;;7.60;85.00;;;;;;5141436;27;20629;-81
2022/04/17 06:32:35;;;;;;;2.87;2.67;;;7.80;84.10;;;;;;5135444;27;20626;-81
2022/04/17 06:35:01;;;;;;;2.80;2.60;;;7.80;83.40;;;;;;5141780;27;20658;-82
2022/04/17 06:37:28;;;;;;;2.97;2.60;;;8.10;82.90;;;;;;5144452;27;20681;-81
2022/04/17 06:39:56;;;;;;;2.93;2.73;;;8.30;82.80;;;;;;5145765;27;20625;-81
2022/04/17 06:42:24;;;;;;;2.30;2.10;;;8.20;82.90;;;;;;5138710;27;20663;-81
2022/04/17 06:44:51;;;;;;;2.43;2.23;;;8.40;82.40;;;;;;5146061;27;20628;-81
2022/04/17 06:47:18;;;;;;;2.80;2.30;;;8.00;81.90;;;;;;5139110;27;20658;-81
2022/04/17 06:49:46;;;;;;;3.23;2.83;;;8.20;80.60;;;;;;5142412;27;20622;-81
2022/04/17 06:52:13;;;;;;;2.90;2.60;;;8.40;80.30;;;;;;5142178;27;20957;-81
2022/04/17 06:54:42;;;;;;;3.50;2.43;;;8.70;80.70;;;;;;5140145;27;20629;-81
2022/04/17 06:57:09;;;;;;;5.70;2.93;;;8.60;80.20;;;;;;5144504;27;20673;-81
2022/04/17 06:59:39;;;;;;;2.77;2.47;;;8.80;79.90;;;;;;5134032;27;20636;-81
2022/04/17 07:02:06;;;;;;;4.53;4.20;;;8.60;78.90;;;;;;5142051;27;21190;-81
2022/04/17 07:04:33;;;;;;;3.13;2.60;;;9.10;79.30;;;;;;5142167;27;20626;-81
2022/04/17 07:07:00;;;;;;;3.13;2.60;;;9.50;79.80;;;;;;5142808;27;20641;-81
2022/04/17 07:09:26;;;;;;;2.30;2.00;;;8.90;77.30;;;;;;5141031;27;20708;-81
2022/04/17 07:11:54;;;;;;;3.20;2.90;;;9.30;77.80;;;;;;5142642;27;20609;-81
2022/04/17 07:14:21;;;;;;;2.63;2.37;;;9.20;76.90;;;;;;5142493;27;20686;-81
2022/04/17 07:16:49;;;;;;;4.90;2.53;;;9.50;75.90;;;;;;5136926;27;21036;-81
2022/04/17 07:19:16;;;;;;;2.60;2.37;;;9.30;75.30;;;;;;5139127;27;21100;-81
2022/04/17 07:21:43;;;;;;;2.43;2.00;;;9.60;75.10;;;;;;5136880;27;20613;-81
2022/04/17 07:24:10;;;;;;;2.70;2.13;;;9.80;74.90;;;;;;5144495;27;20657;-81
2022/04/17 07:26:36;;;;;;;2.33;1.97;;;9.50;74.70;;;;;;5141902;27;20656;-81
2022/04/17 07:29:04;;;;;;;3.33;2.20;;;10.00;73.30;;;;;;5142518;27;20671;-82
2022/04/17 07:31:31;;;;;;;2.90;2.43;;;10.00;71.90;;;;;;5141621;27;21309;-81
2022/04/17 07:33:59;;;;;;;2.20;2.00;;;10.20;72.30;;;;;;5137483;27;20641;-81
2022/04/17 07:36:26;;;;;;;2.80;1.90;;;10.20;71.40;;;;;;5143088;27;20653;-81
2022/04/17 07:38:53;;;;;;;1.80;1.70;;;10.20;70.80;;;;;;5143367;27;20633;-81
2022/04/17 07:41:20;;;;;;;4.50;1.90;;;10.40;71.30;;;;;;5146803;27;21220;-81
2022/04/17 07:43:47;;;;;;;3.03;2.30;;;10.00;68.20;;;;;;5141928;27;20665;-81
2022/04/17 07:46:13;;;;;;;1.90;1.77;;;10.40;69.90;;;;;;5141201;27;20730;-81
2022/04/17 07:48:40;;;;;;;2.07;1.90;;;10.10;69.40;;;;;;5145910;27;20613;-81
2022/04/17 07:51:08;;;;;;;3.07;2.83;;;10.50;69.00;;;;;;5149433;27;20677;-81
2022/04/17 07:53:35;;;;;;;3.00;2.30;;;10.50;69.50;;;;;;5142295;27;20621;-81
2022/04/17 07:56:02;;;;;;;1.83;1.70;;;10.70;69.90;;;;;;5141769;27;21262;-81
2022/04/17 07:58:34;;;;;;;2.07;1.80;;;10.50;69.60;;;;;;5139333;27;20637;-81
2022/04/17 08:01:10;;;;;;;2.07;1.87;;;10.50;67.40;;;;;;5143000;27;20634;-82
2022/04/17 08:03:46;;;;;;;3.37;3.07;;;10.70;68.70;;;;;;5143011;27;21066;-81
2022/04/17 08:06:17;;;;;;;2.30;2.10;;;10.60;67.40;;;;;;5138566;27;20621;-81
2022/04/17 08:08:45;;;;;;;2.37;1.80;;;10.80;66.60;;;;;;5141930;27;21069;-81
2022/04/17 08:11:12;;;;;;;3.40;2.43;;;10.90;65.90;;;;;;5140952;27;20653;-81
2022/04/17 08:13:42;;;;;;;2.60;2.30;;;10.70;64.90;;;;;;5142058;27;20682;-81
2022/04/17 08:16:09;;;;;;;2.17;1.97;;;11.20;65.10;;;;;;5146012;27;20632;-81
2022/04/17 08:18:36;;;;;;;2.53;2.33;;;11.10;65.50;;;;;;5137862;27;20625;-81
2022/04/17 08:21:04;;;;;;;1.70;1.60;;;11.10;64.70;;;;;;5150043;27;20625;-81
2022/04/17 08:23:32;;;;;;;2.17;1.97;;;11.30;65.20;;;;;;5147410;27;20657;-81
2022/04/17 08:25:59;;;;;;;2.50;2.00;;;11.60;63.70;;;;;;5146155;27;20628;-82
2022/04/17 08:28:26;;;;;;;2.33;1.60;;;11.50;63.80;;;;;;5146766;27;20668;-81
2022/04/17 08:30:52;;;;;;;2.37;1.83;;;11.10;62.80;;;;;;5148022;27;21215;-81
2022/04/17 08:33:19;;;;;;;4.40;2.10;;;11.40;62.70;;;;;;5137710;27;20619;-81
2022/04/17 08:35:46;;;;;;;3.00;1.77;;;11.40;62.30;;;;;;5144333;27;20633;-81
2022/04/17 08:38:16;;;;;;;2.00;1.83;;;11.70;63.30;;;;;;5138422;27;20734;-81
2022/04/17 08:40:44;;;;;;;1.50;1.40;;;11.80;63.20;;;;;;5143591;27;20651;-81
2022/04/17 08:43:10;;;;;;;2.60;2.40;;;11.80;63.70;;;;;;5148071;27;20661;-82
2022/04/17 08:45:38;;;;;;;2.27;2.07;;;11.70;62.40;;;;;;5146078;27;20629;-82
2022/04/17 08:48:05;;;;;;;1.50;1.40;;;11.90;62.90;;;;;;5147034;27;20653;-81
2022/04/17 08:50:33;;;;;;;1.70;1.60;;;12.10;63.20;;;;;;5141593;27;20660;-81
2022/04/17 08:53:02;;;;;;;1.97;1.80;;;12.20;62.80;;;;;;5143305;27;21029;-82
2022/04/17 08:55:30;;;;;;;1.60;1.50;;;12.20;60.80;;;;;;5147336;27;20633;-81
2022/04/17 08:57:58;;;;;;;3.10;2.20;;;12.40;61.80;;;;;;5141094;27;21023;-81
2022/04/17 09:00:24;;;;;;;1.80;1.70;;;12.50;61.60;;;;;;5146404;27;20766;-81
2022/04/17 09:02:51;;;;;;;1.70;1.60;;;12.60;61.70;;;;;;5142681;27;20621;-81
2022/04/17 09:05:20;;;;;;;2.70;1.63;;;12.70;61.20;;;;;;5145993;27;20975;-82
2022/04/17 09:07:49;;;;;;;5.00;1.80;;;12.80;61.00;;;;;;5144648;27;20660;-82
2022/04/17 09:10:31;;;;;;;1.73;1.63;;;12.70;59.50;;;;;;5146318;27;20640;-82
2022/04/17 09:13:00;;;;;;;2.03;1.90;;;12.80;59.90;;;;;;5134661;27;20633;-81
2022/04/17 09:15:30;;;;;;;2.10;1.37;;;12.80;59.10;;;;;;5141033;27;20632;-81
2022/04/17 09:17:56;;;;;;;1.80;1.70;;;12.90;60.00;;;;;;5138041;27;20660;-81
2022/04/17 09:20:25;;;;;;;3.17;1.97;;;12.90;59.30;;;;;;5142217;27;20621;-81
2022/04/17 09:22:53;;;;;;;1.90;1.70;;;13.00;58.30;;;;;;5142440;27;20621;-81
2022/04/17 09:25:24;;;;;;;1.50;1.40;;;13.00;59.80;;;;;;5145809;27;20975;-81
2022/04/17 09:28:01;;;;;;;2.03;1.93;;;13.00;59.60;;;;;;5140775;27;20637;-81
2022/04/17 09:30:29;;;;;;;2.47;1.60;;;13.10;60.40;;;;;;5144000;27;20636;-81
2022/04/17 09:32:57;;;;;;;2.57;1.80;;;13.10;60.00;;;;;;5139177;27;20629;-81
2022/04/17 09:35:31;;;;;;;2.30;1.90;;;13.20;59.70;;;;;;5131603;27;20664;-80
2022/04/17 09:37:59;;;;;;;2.10;1.63;;;13.20;58.70;;;;;;5138296;27;20653;-81
2022/04/17 09:40:28;;;;;;;2.20;1.93;;;13.30;58.70;;;;;;5142728;27;20625;-80
2022/04/17 09:43:14;;;;;;;1.80;1.70;;;13.20;58.60;;;;;;5142691;27;20625;-81
2022/04/17 09:45:58;;;;;;;1.87;1.73;;;13.30;59.70;;;;;;5140479;27;21673;-81
2022/04/17 09:48:24;;;;;;;2.13;1.83;;;13.30;59.60;;;;;;5141403;27;20680;-80
2022/04/17 09:50:51;;;;;;;2.03;1.80;;;13.40;60.10;;;;;;5141840;27;21590;-81
2022/04/17 09:53:31;;;;;;;1.73;1.60;;;13.50;59.30;;;;;;5137161;27;20628;-81
2022/04/17 09:56:08;;;;;;;1.40;1.30;;;13.70;58.80;;;;;;5141530;27;20654;-81
2022/04/17 09:58:38;;;;;;;1.53;1.43;;;13.80;59.20;;;;;;5140318;27;20629;-81
2022/04/17 10:01:07;;;;;;;3.73;1.77;;;13.90;57.70;;;;;;5142174;27;20640;-81
2022/04/17 10:03:38;;;;;;;2.20;1.80;;;14.00;57.90;;;;;;5141806;27;20765;-81
2022/04/17 10:06:06;;;;;;;2.43;1.40;;;14.10;57.60;;;;;;5145309;27;20651;-82
2022/04/17 10:08:33;;;;;;;1.73;1.60;;;14.20;58.90;;;;;;5139810;27;20715;-81
2022/04/17 10:11:01;;;;;;;2.27;1.43;;;14.40;56.70;;;;;;5144544;27;21254;-81
2022/04/17 10:13:30;;;;;;;2.23;1.77;;;14.50;57.70;;;;;;5140381;27;20622;-81
2022/04/17 10:16:01;;;;;;;1.73;1.60;;;14.50;56.60;;;;;;5144703;27;20688;-80
2022/04/17 10:18:31;;;;;;;2.10;1.60;;;14.70;56.60;;;;;;5145533;27;21313;-83
2022/04/17 10:20:58;;;;;;;1.73;1.60;;;14.80;55.60;;;;;;5140989;27;20953;-81
2022/04/17 10:23:28;;;;;;;1.87;1.67;;;15.00;55.30;;;;;;5141768;27;20657;-81
2022/04/17 10:25:58;;;;;;;3.43;1.57;;;15.20;55.30;;;;;;5142963;27;20609;-81
2022/04/17 10:28:26;;;;;;;5.63;1.80;;;15.40;58.10;;;;;;5140100;27;20606;-83
2022/04/17 10:31:09;;;;;;;2.20;1.73;;;15.70;57.00;;;;;;5142505;27;20632;-81
2022/04/17 10:34:09;;;;;;;1.57;1.47;;;15.80;53.20;;;;;;5140780;27;20617;-81
2022/04/17 10:36:54;;;;;;;2.83;1.00;;;15.90;54.50;;;;;;5122602;27;21198;-81
2022/04/17 10:39:24;;;;;;;3.20;1.53;;;16.40;55.20;;;;;;5147233;27;20960;-81
2022/04/17 10:41:52;;;;;;;4.23;1.20;;;16.80;53.80;;;;;;5144320;27;20609;-81
2022/04/17 10:44:18;;;;;;;2.50;1.40;;;17.10;53.10;;;;;;5143774;27;20684;-81
2022/04/17 10:46:49;;;;;;;2.20;1.60;;;17.20;50.70;;;;;;5140921;27;20647;-81
2022/04/17 10:49:20;;;;;;;2.20;1.40;;;17.30;50.70;;;;;;5148257;27;20608;-81
2022/04/17 10:51:52;;;;;;;1.50;1.40;;;17.70;52.60;;;;;;5142608;27;20713;-81
2022/04/17 10:54:19;;;;;;;1.97;1.77;;;18.00;51.00;;;;;;5140942;27;20645;-82
2022/04/17 10:56:59;;;;;;;2.40;1.37;;;18.20;50.10;;;;;;5139119;27;21173;-81
2022/04/17 10:59:28;;;;;;;2.97;1.37;;;18.50;49.90;;;;;;5135405;27;20625;-81
2022/04/17 11:02:01;;;;;;;1.40;1.30;;;18.70;50.20;;;;;;5138460;27;21017;-82
2022/04/17 11:04:30;;;;;;;4.00;1.40;;;18.90;48.40;;;;;;5145303;27;20670;-81
2022/04/17 11:07:22;;;;;;;1.70;1.23;;;19.10;48.90;;;;;;5140619;27;20634;-81
2022/04/17 11:10:04;;;;;;;1.30;1.20;;;19.50;49.10;;;;;;5140439;27;20695;-81
2022/04/17 11:12:31;;;;;;;1.23;1.13;;;19.70;46.90;;;;;;5140787;27;20623;-81
2022/04/17 11:15:21;;;;;;;1.73;1.30;;;19.90;47.30;;;;;;5144230;27;20652;-81
2022/04/17 11:17:51;;;;;;;2.40;1.90;;;20.20;47.50;;;;;;5143982;27;20617;-82
2022/04/17 11:20:17;;;;;;;2.63;1.33;;;20.60;44.90;;;;;;5140165;27;20634;-81
2022/04/17 11:22:44;;;;;;;2.13;1.30;;;20.90;44.30;;;;;;5139340;27;20644;-82
2022/04/17 11:25:12;;;;;;;3.57;1.40;;;21.00;44.10;;;;;;5144873;27;20986;-82
2022/04/17 11:27:42;;;;;;;1.47;1.30;;;21.20;43.70;;;;;;5140076;27;20630;-83
2022/04/17 11:30:29;;;;;;;2.13;1.47;;;21.40;44.00;;;;;;5144029;27;20626;-82
2022/04/17 11:32:58;;;;;;;1.53;1.30;;;21.70;43.70;;;;;;5143113;27;20626;-82
2022/04/17 11:35:26;;;;;;;2.03;1.93;;;21.90;42.00;;;;;;5140233;27;20660;-82
2022/04/17 11:37:56;;;;;;;1.53;1.20;;;22.20;41.60;;;;;;5142521;27;21264;-82
2022/04/17 11:40:25;;;;;;;1.40;1.30;;;22.20;41.00;;;;;;5140525;27;20625;-83
2022/04/17 11:42:54;;;;;;;1.40;1.30;;;22.40;42.10;;;;;;5139541;27;20636;-83
2022/04/17 11:45:23;;;;;;;1.77;1.67;;;22.60;40.60;;;;;;5138601;27;21256;-82
2022/04/17 11:47:50;;;;;;;1.70;1.60;;;22.60;39.80;;;;;;5136805;27;20625;-82
2022/04/17 11:50:27;;;;;;;1.43;1.00;;;22.60;38.80;;;;;;5145783;27;21195;-83
2022/04/17 11:52:56;;;;;;;1.30;1.20;;;23.00;40.10;;;;;;5136980;27;20606;-82
2022/04/17 11:55:27;;;;;;;2.20;1.43;;;23.30;40.40;;;;;;5138217;27;20650;-82
2022/04/17 11:57:55;;;;;;;2.60;1.87;;;23.30;37.50;;;;;;5143593;27;20609;-82
2022/04/17 12:00:22;;;;;;;1.60;1.50;;;23.10;37.30;;;;;;5145291;27;21121;-82
2022/04/17 12:02:55;;;;;;;1.97;1.47;;;23.10;37.90;;;;;;5144007;27;20624;-82
2022/04/17 12:05:22;;;;;;;1.50;1.30;;;23.40;38.60;;;;;;5147178;27;20831;-82
2022/04/17 12:08:01;;;;;;;2.10;1.17;;;23.60;38.00;;;;;;5143676;27;20616;-82
2022/04/17 12:10:29;;;;;;;1.53;1.43;;;23.80;38.40;;;;;;5147450;27;20639;-82
2022/04/17 12:12:56;;;;;;;1.30;1.20;;;24.10;36.40;;;;;;5149222;27;20615;-82
2022/04/17 12:15:22;;;;;;;1.50;1.40;;;24.30;37.60;;;;;;5141241;27;20650;-82
2022/04/17 12:17:59;;;;;;;3.17;1.30;;;24.50;37.00;;;;;;5146566;27;20621;-80
2022/04/17 12:20:26;;;;;;;1.47;1.37;;;24.70;36.40;;;;;;5145963;27;21190;-80
2022/04/17 12:22:54;;;;;;;2.53;2.33;;;24.60;37.30;;;;;;5145169;27;20609;-80
2022/04/17 12:25:23;;;;;;;2.70;2.10;;;24.50;36.60;;;;;;5147424;27;21037;-80
2022/04/17 12:27:51;;;;;;;2.60;2.13;;;24.80;35.50;;;;;;5146130;27;20649;-80
2022/04/17 12:30:20;;;;;;;2.80;1.80;;;24.90;36.30;;;;;;5143995;27;20605;-81
2022/04/17 12:32:48;;;;;;;1.70;1.60;;;25.00;35.40;;;;;;5146772;27;20651;-81
2022/04/17 12:35:23;;;;;;;1.70;1.60;;;25.30;35.90;;;;;;5142524;27;20650;-81
2022/04/17 12:38:01;;;;;;;1.63;1.20;;;25.50;35.90;;;;;;5147118;27;20625;-81
2022/04/17 12:40:30;;;;;;;1.80;1.70;;;25.60;34.20;;;;;;5126854;27;20629;-81
2022/04/17 12:43:15;;;;;;;2.13;1.73;;;25.90;34.90;;;;;;5145634;27;20671;-81
2022/04/17 12:45:53;;;;;;;1.50;1.23;;;26.10;35.10;;;;;;5139844;27;20673;-80
2022/04/17 12:48:25;;;;;;;1.80;1.10;;;26.40;34.40;;;;;;5138958;27;20673;-80
2022/04/17 12:50:56;;;;;;;3.63;1.70;;;26.60;33.60;;;;;;5141657;27;20629;-80
2022/04/17 12:53:23;;;;;;;1.37;1.00;;;26.10;33.30;;;;;;5141837;27;20695;-80
2022/04/17 12:55:53;;;;;;;1.93;1.40;;;26.20;33.10;;;;;;5145479;27;20645;-80
2022/04/17 12:58:20;;;;;;;1.50;1.40;;;26.30;34.50;;;;;;5142382;27;21159;-80
2022/04/17 13:00:56;;;;;;;3.43;1.30;;;26.80;33.20;;;;;;5147091;27;20617;-80
2022/04/17 13:03:33;;;;;;;2.33;1.20;;;26.60;32.30;;;;;;5147803;27;21543;-81
2022/04/17 13:06:01;;;;;;;2.90;1.50;;;26.10;31.90;;;;;;5145056;27;20772;-80
2022/04/17 13:08:29;;;;;;;1.30;1.20;;;26.40;32.40;;;;;;5143380;27;20719;-81
2022/04/17 13:10:57;;;;;;;2.03;1.70;;;26.90;32.30;;;;;;5142546;27;20632;-81